Time;durP1;ratioP1;P1;durP2;ratioP2;P2;SDS_P1;SDS_P2;PMS_P1;PMS_P2;Temp;Humidity;BMP_temperature;BMP_pressure;BME280_temperature;BME280_humidity;BME280_pressure;Samples;Min_cycle;Max_cycle;Signal;HPM_P1;HPM_P2
2023/03/12 00:02:20;;;;;;;33.15;5.93;;;18.60;46.60;;;;;;4991649;28;20245;-71
2023/03/12 00:04:47;;;;;;;24.85;6.25;;;18.60;46.60;;;;;;4994550;28;20874;-71
2023/03/12 00:07:14;;;;;;;21.70;5.43;;;18.60;46.60;;;;;;4996929;28;20237;-71
2023/03/12 00:09:41;;;;;;;27.83;6.07;;;18.60;46.60;;;;;;4995337;28;20637;-71
2023/03/12 00:12:09;;;;;;;30.63;6.40;;;18.60;46.60;;;;;;4995351;28;20261;-71
2023/03/12 00:14:37;;;;;;;26.42;6.53;;;18.60;46.60;;;;;;4996622;28;20229;-71
2023/03/12 00:17:04;;;;;;;26.15;6.35;;;18.60;46.70;;;;;;4996767;28;20225;-71
2023/03/12 00:19:32;;;;;;;27.75;5.82;;;18.60;46.60;;;;;;4996604;28;20195;-71
2023/03/12 00:21:59;;;;;;;23.13;5.20;;;18.60;46.60;;;;;;4995277;28;20460;-71
2023/03/12 00:24:26;;;;;;;26.55;6.20;;;18.60;46.60;;;;;;4996477;28;20198;-71
2023/03/12 00:26:53;;;;;;;32.55;6.20;;;18.50;46.70;;;;;;4996314;28;20217;-71
2023/03/12 00:29:20;;;;;;;26.63;5.65;;;18.50;46.60;;;;;;4996478;28;20194;-71
2023/03/12 00:31:50;;;;;;;30.70;6.70;;;18.50;46.70;;;;;;4996324;28;20218;-71
2023/03/12 00:34:17;;;;;;;26.63;6.40;;;18.50;46.70;;;;;;4995723;28;20206;-71
2023/03/12 00:36:44;;;;;;;26.33;6.13;;;18.60;46.80;;;;;;4996444;28;20217;-71
2023/03/12 00:39:11;;;;;;;25.65;5.80;;;18.50;46.80;;;;;;4996248;28;20225;-71
2023/03/12 00:41:38;;;;;;;23.83;6.07;;;18.50;46.90;;;;;;4995841;28;20218;-71
2023/03/12 00:44:06;;;;;;;25.17;6.45;;;18.50;46.80;;;;;;4996174;28;20248;-71
2023/03/12 00:46:33;;;;;;;20.50;4.97;;;18.50;46.80;;;;;;4994828;28;20574;-71
2023/03/12 00:49:01;;;;;;;28.98;5.90;;;18.50;46.80;;;;;;4995835;28;20615;-71
2023/03/12 00:51:29;;;;;;;21.85;5.38;;;18.50;46.80;;;;;;4996038;28;20221;-71
2023/03/12 00:53:56;;;;;;;29.40;6.03;;;18.50;46.80;;;;;;4995948;28;20206;-71
2023/03/12 00:56:23;;;;;;;25.45;5.50;;;18.50;46.90;;;;;;4995798;28;20217;-71
2023/03/12 00:58:50;;;;;;;24.65;6.13;;;18.40;47.50;;;;;;4995834;28;20194;-71
2023/03/12 01:01:17;;;;;;;25.75;5.93;;;18.50;47.00;;;;;;4995367;28;20620;-71
2023/03/12 01:03:44;;;;;;;24.20;5.78;;;18.50;46.90;;;;;;4995439;28;20277;-71
2023/03/12 01:06:13;;;;;;;24.02;5.53;;;18.50;47.00;;;;;;4995305;28;20635;-71
2023/03/12 01:08:40;;;;;;;25.33;6.05;;;18.40;46.90;;;;;;4995735;28;20194;-72
2023/03/12 01:11:07;;;;;;;24.08;5.40;;;18.40;46.90;;;;;;4995075;28;20712;-71
2023/03/12 01:13:34;;;;;;;27.27;5.50;;;18.40;47.00;;;;;;4995629;28;20665;-71
2023/03/12 01:16:01;;;;;;;23.40;5.85;;;18.40;47.00;;;;;;4994538;28;20218;-71
2023/03/12 01:18:28;;;;;;;27.02;5.75;;;18.40;47.00;;;;;;4994102;28;20611;-71
2023/03/12 01:20:55;;;;;;;25.08;5.72;;;18.40;47.00;;;;;;4995060;28;20758;-71
2023/03/12 01:23:23;;;;;;;26.88;6.00;;;18.40;47.10;;;;;;4995377;28;20218;-71
2023/03/12 01:25:50;;;;;;;23.88;5.78;;;18.40;47.00;;;;;;4995357;28;20214;-71
2023/03/12 01:28:18;;;;;;;29.38;5.97;;;18.40;47.10;;;;;;4995452;28;20190;-71
2023/03/12 01:30:45;;;;;;;24.95;5.85;;;18.40;47.20;;;;;;4995182;28;20268;-71
2023/03/12 01:33:12;;;;;;;22.35;5.32;;;18.40;47.10;;;;;;4995248;28;20241;-71
2023/03/12 01:35:40;;;;;;;32.22;7.15;;;18.40;47.10;;;;;;4995083;28;20204;-71
2023/03/12 01:38:07;;;;;;;24.70;6.65;;;18.40;47.20;;;;;;4995064;28;20194;-71
2023/03/12 01:40:36;;;;;;;27.70;5.63;;;18.40;47.20;;;;;;4994971;28;20220;-71
2023/03/12 01:43:27;;;;;;;28.60;5.80;;;18.40;47.10;;;;;;4995087;28;20221;-71
2023/03/12 01:46:21;;;;;;;25.20;5.57;;;18.40;47.20;;;;;;4994947;28;20217;-71
2023/03/12 01:48:53;;;;;;;29.40;6.18;;;18.40;47.20;;;;;;4994988;28;20190;-71
2023/03/12 01:51:22;;;;;;;25.05;5.13;;;18.40;47.30;;;;;;4994928;28;20222;-71
2023/03/12 01:53:53;;;;;;;30.27;6.70;;;18.40;47.20;;;;;;4992446;28;20245;-71
2023/03/12 01:56:22;;;;;;;29.77;6.10;;;18.40;47.30;;;;;;5000232;28;20217;-71
2023/03/12 01:58:53;;;;;;;28.75;6.13;;;18.30;47.20;;;;;;4994289;28;20541;-71
2023/03/12 02:01:21;;;;;;;32.40;6.60;;;18.30;47.20;;;;;;4994654;28;20222;-71
2023/03/12 02:03:51;;;;;;;18.95;5.65;;;18.30;47.20;;;;;;4994279;28;20222;-71
2023/03/12 02:06:24;;;;;;;24.85;5.65;;;18.30;47.30;;;;;;4993083;28;20389;-71
2023/03/12 02:08:51;;;;;;;29.23;7.60;;;18.30;47.20;;;;;;4994193;28;20193;-71
2023/03/12 02:11:18;;;;;;;25.85;6.13;;;18.30;47.30;;;;;;4993892;28;20288;-71
2023/03/12 02:13:47;;;;;;;25.67;5.95;;;18.30;47.30;;;;;;4994746;28;20202;-71
2023/03/12 02:16:15;;;;;;;22.38;6.00;;;18.30;47.30;;;;;;4994302;28;20214;-71
2023/03/12 02:18:42;;;;;;;24.13;5.93;;;18.30;47.40;;;;;;4994115;28;20213;-71
2023/03/12 02:21:15;;;;;;;26.25;6.05;;;18.30;47.40;;;;;;4993042;28;20218;-71
2023/03/12 02:23:52;;;;;;;26.20;5.38;;;18.30;47.40;;;;;;4994238;28;20229;-71
2023/03/12 02:26:22;;;;;;;28.88;6.75;;;18.30;47.40;;;;;;4992989;28;20214;-71
2023/03/12 02:28:50;;;;;;;25.42;5.50;;;18.30;47.40;;;;;;4992899;28;20723;-71
2023/03/12 02:31:21;;;;;;;24.80;6.35;;;18.30;47.50;;;;;;4993639;28;20221;-71
2023/03/12 02:33:48;;;;;;;26.80;6.03;;;18.30;47.50;;;;;;4994082;28;20198;-71
2023/03/12 02:36:15;;;;;;;31.77;6.28;;;18.30;47.50;;;;;;4993845;28;20288;-71
2023/03/12 02:38:44;;;;;;;26.88;5.50;;;18.30;47.50;;;;;;4994035;28;20253;-71
2023/03/12 02:41:16;;;;;;;29.77;6.03;;;18.30;47.50;;;;;;4993765;28;20730;-71
2023/03/12 02:43:48;;;;;;;24.88;5.97;;;18.30;47.50;;;;;;4993624;28;20272;-71
2023/03/12 02:46:16;;;;;;;28.05;5.93;;;18.30;47.60;;;;;;4993904;28;20218;-71
2023/03/12 02:48:43;;;;;;;27.52;6.47;;;18.30;47.60;;;;;;4993515;28;20640;-71
2023/03/12 02:51:10;;;;;;;31.98;6.85;;;18.30;47.60;;;;;;4993739;28;20295;-71
2023/03/12 02:53:37;;;;;;;28.00;6.15;;;18.20;47.50;;;;;;4993641;28;20220;-71
2023/03/12 02:56:05;;;;;;;26.08;5.90;;;18.30;47.60;;;;;;4993340;28;20556;-71
2023/03/12 02:58:32;;;;;;;29.45;7.00;;;18.30;47.70;;;;;;4993443;28;20548;-71
2023/03/12 03:01:00;;;;;;;24.20;6.72;;;18.20;47.50;;;;;;4993517;28;20229;-71
2023/03/12 03:03:28;;;;;;;27.23;6.63;;;18.20;47.60;;;;;;4993498;28;20221;-71
2023/03/12 03:05:55;;;;;;;29.15;6.10;;;18.20;47.60;;;;;;4992358;28;20225;-71
2023/03/12 03:08:22;;;;;;;26.23;5.68;;;18.20;47.60;;;;;;4993051;28;20202;-71
2023/03/12 03:10:51;;;;;;;26.77;6.10;;;18.20;47.50;;;;;;4993090;28;20225;-71
2023/03/12 03:13:18;;;;;;;39.22;6.75;;;18.20;47.60;;;;;;4993646;28;20202;-71
2023/03/12 03:15:45;;;;;;;29.90;6.00;;;18.20;47.60;;;;;;4993249;28;20618;-71
2023/03/12 03:18:13;;;;;;;28.33;6.43;;;18.20;47.70;;;;;;4993501;28;20711;-71
2023/03/12 03:20:42;;;;;;;29.00;6.38;;;18.20;47.70;;;;;;4992912;28;20631;-71
2023/03/12 03:23:09;;;;;;;29.42;6.22;;;18.20;47.70;;;;;;4992864;28;20214;-71
2023/03/12 03:25:36;;;;;;;28.17;5.70;;;18.20;47.70;;;;;;4986815;28;20252;-71
2023/03/12 03:28:03;;;;;;;26.25;6.07;;;18.20;47.70;;;;;;4976342;28;20261;-71
2023/03/12 03:30:31;;;;;;;23.77;6.10;;;18.20;47.80;;;;;;4973363;28;20704;-71
2023/03/12 03:32:58;;;;;;;30.80;5.70;;;18.10;47.60;;;;;;4973167;28;20269;-71
2023/03/12 03:35:27;;;;;;;31.33;6.13;;;18.20;47.80;;;;;;4973603;28;20190;-71
2023/03/12 03:37:54;;;;;;;24.30;5.22;;;18.10;47.70;;;;;;4973904;28;20637;-71
2023/03/12 03:40:21;;;;;;;30.92;5.78;;;18.20;47.80;;;;;;4973297;28;20191;-71
2023/03/12 03:42:48;;;;;;;22.33;5.40;;;18.20;47.80;;;;;;4973649;28;20219;-71
2023/03/12 03:45:15;;;;;;;31.58;6.30;;;18.20;47.80;;;;;;4973278;28;20198;-71
2023/03/12 03:47:42;;;;;;;29.25;6.03;;;18.10;47.70;;;;;;4973359;28;20692;-71
2023/03/12 03:50:11;;;;;;;22.73;5.68;;;18.10;47.80;;;;;;4973225;28;20657;-71
2023/03/12 03:52:40;;;;;;;25.23;5.10;;;18.20;47.90;;;;;;4968677;28;20219;-71
2023/03/12 03:55:08;;;;;;;30.42;5.63;;;18.10;47.80;;;;;;4973504;28;20199;-71
2023/03/12 03:57:35;;;;;;;24.67;6.15;;;18.10;47.80;;;;;;4973736;28;20219;-71
2023/03/12 04:00:07;;;;;;;24.98;5.57;;;18.10;47.80;;;;;;4973419;28;20186;-71
2023/03/12 04:02:35;;;;;;;25.70;5.80;;;18.10;47.80;;;;;;4973394;28;20767;-71
2023/03/12 04:05:02;;;;;;;25.17;5.75;;;18.10;47.80;;;;;;4973087;28;20227;-71
2023/03/12 04:07:29;;;;;;;26.05;5.68;;;18.10;47.80;;;;;;4973563;28;20277;-71
2023/03/12 04:09:58;;;;;;;28.55;6.80;;;18.10;47.80;;;;;;4973058;28;20194;-71
2023/03/12 04:12:25;;;;;;;28.10;5.75;;;18.10;47.80;;;;;;4973211;28;20329;-71
2023/03/12 04:14:52;;;;;;;31.08;5.63;;;18.10;47.80;;;;;;4973404;28;20665;-71
2023/03/12 04:17:20;;;;;;;23.95;5.15;;;18.10;47.80;;;;;;4972043;28;20258;-71
2023/03/12 04:19:47;;;;;;;27.60;5.50;;;18.10;47.80;;;;;;4973105;28;20195;-71
2023/03/12 04:22:15;;;;;;;32.38;6.13;;;18.10;47.80;;;;;;4973041;28;20636;-71
2023/03/12 04:24:42;;;;;;;23.65;5.60;;;18.10;47.80;;;;;;4973210;28;20219;-71
2023/03/12 04:27:10;;;;;;;30.02;6.43;;;18.10;47.90;;;;;;4973363;28;20281;-71
2023/03/12 04:29:38;;;;;;;26.77;5.10;;;18.10;47.80;;;;;;4973150;28;20268;-71
2023/03/12 04:32:06;;;;;;;30.88;6.68;;;18.10;47.90;;;;;;4973161;28;20223;-71
2023/03/12 04:34:33;;;;;;;24.38;5.90;;;18.10;47.80;;;;;;4973196;28;20246;-71
2023/03/12 04:37:01;;;;;;;36.92;6.47;;;18.10;47.80;;;;;;4973282;28;20223;-71
2023/03/12 04:39:29;;;;;;;25.17;6.00;;;18.10;47.80;;;;;;4973098;28;20195;-71
2023/03/12 04:41:56;;;;;;;32.65;6.75;;;18.10;47.90;;;;;;4973289;28;20227;-71
2023/03/12 04:44:24;;;;;;;23.42;5.45;;;18.00;47.80;;;;;;4972725;28;20576;-71
2023/03/12 04:46:51;;;;;;;23.25;5.97;;;18.10;48.10;;;;;;4972770;28;20219;-71
2023/03/12 04:49:18;;;;;;;26.70;5.63;;;18.10;47.90;;;;;;4972998;28;20199;-71
2023/03/12 04:51:45;;;;;;;24.30;5.97;;;18.00;47.90;;;;;;4974828;28;20223;-71
2023/03/12 04:54:12;;;;;;;29.75;5.97;;;18.10;48.00;;;;;;4976547;28;20249;-71
2023/03/12 04:56:39;;;;;;;24.00;5.72;;;18.00;47.90;;;;;;4976513;28;20221;-71
2023/03/12 04:59:06;;;;;;;27.92;5.90;;;18.10;48.00;;;;;;4976405;28;20195;-71
2023/03/12 05:01:36;;;;;;;25.48;5.43;;;18.00;48.00;;;;;;4976313;28;20223;-71
2023/03/12 05:04:05;;;;;;;23.17;5.35;;;18.00;48.00;;;;;;4976268;28;20219;-71
2023/03/12 05:06:32;;;;;;;25.45;5.97;;;18.00;48.00;;;;;;4976292;28;20636;-71
2023/03/12 05:09:00;;;;;;;27.77;5.88;;;18.00;47.90;;;;;;4976208;28;20245;-71
2023/03/12 05:11:27;;;;;;;22.75;4.95;;;18.00;47.80;;;;;;4975890;28;20238;-71
2023/03/12 05:13:54;;;;;;;25.58;5.63;;;18.00;47.90;;;;;;4976160;28;20242;-71
2023/03/12 05:16:21;;;;;;;24.17;6.60;;;18.00;47.90;;;;;;4942196;28;20222;-71
2023/03/12 05:18:49;;;;;;;25.83;5.10;;;18.00;47.90;;;;;;4975919;28;20415;-71
2023/03/12 05:21:18;;;;;;;27.58;6.07;;;18.00;48.00;;;;;;4975629;28;20621;-71
2023/03/12 05:23:46;;;;;;;21.25;5.45;;;18.00;48.00;;;;;;4975864;28;20277;-71
2023/03/12 05:26:18;;;;;;;26.73;5.75;;;18.00;47.90;;;;;;4975968;28;20222;-71
2023/03/12 05:28:45;;;;;;;26.33;6.03;;;18.00;48.00;;;;;;4975960;28;20195;-71
2023/03/12 05:31:13;;;;;;;23.75;5.13;;;18.00;48.00;;;;;;4975496;28;20218;-71
2023/03/12 05:33:40;;;;;;;25.27;5.63;;;18.00;48.00;;;;;;4975906;28;20191;-71
2023/03/12 05:36:10;;;;;;;22.95;4.95;;;18.00;48.00;;;;;;4975726;28;20222;-71
2023/03/12 05:38:37;;;;;;;20.80;4.93;;;18.00;48.00;;;;;;4975805;28;20250;-71
2023/03/12 05:41:05;;;;;;;17.75;5.00;;;18.00;48.00;;;;;;4975675;28;20191;-71
2023/03/12 05:43:33;;;;;;;23.23;5.22;;;18.00;48.00;;;;;;4975316;28;20218;-71
2023/03/12 05:46:01;;;;;;;22.70;5.47;;;18.00;47.90;;;;;;4975225;28;20633;-71
2023/03/12 05:48:28;;;;;;;24.95;6.00;;;18.00;48.10;;;;;;4975316;28;20191;-71
2023/03/12 05:50:55;;;;;;;26.10;5.38;;;18.00;48.10;;;;;;4975114;28;20191;-71
2023/03/12 05:53:24;;;;;;;22.55;5.07;;;18.00;48.00;;;;;;4975168;28;20561;-71
2023/03/12 05:55:51;;;;;;;25.85;5.68;;;18.00;48.00;;;;;;4975151;28;20223;-71
2023/03/12 05:58:18;;;;;;;27.80;6.00;;;18.00;48.00;;;;;;4975176;28;20218;-71
2023/03/12 06:00:45;;;;;;;25.05;6.25;;;17.90;47.90;;;;;;4975029;28;20191;-71
2023/03/12 06:03:13;;;;;;;24.08;5.85;;;17.90;47.90;;;;;;4975099;28;20226;-71
2023/03/12 06:05:40;;;;;;;26.90;5.88;;;17.90;48.00;;;;;;4974009;28;20426;-71
2023/03/12 06:08:07;;;;;;;27.60;5.95;;;17.90;48.00;;;;;;4975355;28;20218;-71
2023/03/12 06:10:38;;;;;;;24.73;5.28;;;17.90;48.10;;;;;;4973786;28;20199;-70
2023/03/12 06:13:06;;;;;;;28.23;6.03;;;17.90;48.10;;;;;;4975309;28;20616;-71
2023/03/12 06:15:33;;;;;;;21.17;5.47;;;17.90;48.00;;;;;;4974911;28;20202;-71
2023/03/12 06:18:00;;;;;;;26.10;5.63;;;18.00;48.10;;;;;;4974653;28;20269;-71
2023/03/12 06:20:27;;;;;;;24.63;5.53;;;17.90;48.10;;;;;;4974674;28;20198;-71
2023/03/12 06:22:54;;;;;;;22.33;5.07;;;17.90;48.10;;;;;;4974901;28;20269;-71
2023/03/12 06:25:21;;;;;;;27.60;6.13;;;18.00;48.10;;;;;;4974489;28;20226;-71
2023/03/12 06:27:50;;;;;;;23.63;5.68;;;17.90;48.10;;;;;;4973372;28;20254;-71
2023/03/12 06:30:17;;;;;;;22.38;5.15;;;17.90;48.10;;;;;;4975088;28;20195;-71
2023/03/12 06:32:45;;;;;;;27.58;5.57;;;17.90;48.10;;;;;;4973257;28;20250;-71
2023/03/12 06:35:12;;;;;;;28.42;6.28;;;17.90;48.10;;;;;;4974651;28;20210;-71
2023/03/12 06:37:39;;;;;;;23.65;5.97;;;17.90;48.10;;;;;;4975086;28;20254;-71
2023/03/12 06:40:09;;;;;;;23.88;5.88;;;17.90;48.10;;;;;;4974293;28;20187;-71
2023/03/12 06:42:36;;;;;;;27.08;5.75;;;17.90;48.80;;;;;;4973511;28;20277;-71
2023/03/12 06:45:06;;;;;;;26.48;5.70;;;17.90;48.10;;;;;;4974411;28;20269;-71
2023/03/12 06:47:33;;;;;;;27.17;5.53;;;17.90;48.20;;;;;;4974092;28;20218;-71
2023/03/12 06:50:00;;;;;;;25.63;5.80;;;17.90;48.20;;;;;;4974006;28;20195;-71
2023/03/12 06:52:27;;;;;;;26.17;5.80;;;17.90;48.20;;;;;;4974535;28;20306;-71
2023/03/12 06:54:55;;;;;;;18.70;5.22;;;17.90;48.30;;;;;;4974421;28;20274;-71
2023/03/12 06:57:22;;;;;;;27.25;6.00;;;17.90;48.20;;;;;;4972917;28;20219;-71
2023/03/12 06:59:49;;;;;;;24.45;5.53;;;17.90;48.30;;;;;;4974082;28;20195;-71
2023/03/12 07:02:18;;;;;;;21.70;5.60;;;17.90;48.20;;;;;;4974005;28;20731;-71
2023/03/12 07:04:45;;;;;;;23.73;5.10;;;17.90;48.30;;;;;;4974113;28;20218;-71
2023/03/12 07:07:12;;;;;;;26.20;6.00;;;17.90;48.30;;;;;;4974218;28;20266;-71
2023/03/12 07:09:39;;;;;;;23.63;5.05;;;17.80;48.20;;;;;;4974044;28;20608;-71
2023/03/12 07:12:06;;;;;;;20.50;5.00;;;17.80;48.30;;;;;;4973660;28;20231;-71
2023/03/12 07:14:33;;;;;;;25.85;5.40;;;17.80;48.30;;;;;;4973570;28;20257;-71
2023/03/12 07:17:03;;;;;;;24.23;6.63;;;17.80;48.20;;;;;;4973842;28;20269;-71
2023/03/12 07:19:31;;;;;;;22.67;5.07;;;17.80;48.30;;;;;;4972472;28;20624;-71
2023/03/12 07:21:59;;;;;;;26.80;4.78;;;17.80;48.20;;;;;;4973854;28;20222;-71
2023/03/12 07:24:26;;;;;;;23.83;6.07;;;17.80;48.30;;;;;;4972463;28;20219;-71
2023/03/12 07:26:53;;;;;;;24.73;5.35;;;17.80;48.30;;;;;;4973974;28;20286;-71
2023/03/12 07:29:20;;;;;;;29.17;6.10;;;17.90;49.10;;;;;;4973548;28;20229;-71
2023/03/12 07:31:47;;;;;;;22.92;5.22;;;17.80;48.40;;;;;;4973347;28;20700;-71
2023/03/12 07:34:14;;;;;;;31.88;5.55;;;17.80;48.30;;;;;;4973847;28;20199;-71
2023/03/12 07:36:42;;;;;;;22.70;5.90;;;17.80;48.30;;;;;;4973740;28;20215;-71
2023/03/12 07:39:09;;;;;;;21.95;4.93;;;17.80;48.40;;;;;;4973714;28;20257;-71
2023/03/12 07:41:37;;;;;;;26.58;6.00;;;17.80;48.40;;;;;;4973430;28;20701;-71
2023/03/12 07:44:05;;;;;;;27.02;5.80;;;17.80;48.40;;;;;;4972089;28;20235;-71
2023/03/12 07:46:32;;;;;;;23.50;5.68;;;17.80;48.40;;;;;;4973245;28;20704;-71
2023/03/12 07:49:00;;;;;;;22.85;5.13;;;17.80;48.40;;;;;;4972440;28;20352;-71
2023/03/12 07:51:27;;;;;;;23.00;5.28;;;17.80;48.50;;;;;;4973592;28;20613;-71
2023/03/12 07:53:55;;;;;;;24.02;5.95;;;17.80;48.40;;;;;;4973630;28;20191;-71
2023/03/12 07:56:23;;;;;;;22.27;5.80;;;17.80;48.40;;;;;;4973448;28;20218;-71
2023/03/12 07:58:50;;;;;;;23.05;5.32;;;17.80;48.40;;;;;;4973247;28;20657;-71
2023/03/12 08:01:17;;;;;;;24.25;5.28;;;17.80;48.40;;;;;;4973036;28;20601;-71
2023/03/12 08:03:45;;;;;;;22.98;5.45;;;17.80;48.50;;;;;;4973331;28;20269;-71
2023/03/12 08:06:12;;;;;;;21.92;4.97;;;17.80;48.50;;;;;;4973029;28;20289;-71
2023/03/12 08:08:41;;;;;;;24.50;5.40;;;17.80;48.50;;;;;;4973475;28;20764;-71
2023/03/12 08:11:10;;;;;;;26.75;5.13;;;17.80;48.50;;;;;;4973070;28;20238;-71
2023/03/12 08:13:37;;;;;;;19.83;5.32;;;17.80;48.60;;;;;;4973323;28;20700;-71
2023/03/12 08:16:04;;;;;;;21.77;4.68;;;17.70;49.10;;;;;;4939177;28;20235;-71
2023/03/12 08:18:31;;;;;;;20.40;5.13;;;17.80;48.60;;;;;;4973275;28;20246;-71
2023/03/12 08:20:58;;;;;;;25.58;4.90;;;17.80;48.60;;;;;;4971809;28;20203;-71
2023/03/12 08:23:26;;;;;;;23.65;5.07;;;17.80;48.60;;;;;;4972826;28;20210;-71
2023/03/12 08:25:54;;;;;;;24.10;5.00;;;17.80;48.60;;;;;;4973408;28;20266;-71
2023/03/12 08:28:24;;;;;;;23.50;5.55;;;17.80;48.60;;;;;;4976960;28;20222;-71
2023/03/12 08:30:53;;;;;;;21.23;4.90;;;17.80;48.60;;;;;;4976888;28;20192;-71
2023/03/12 08:33:20;;;;;;;22.33;5.30;;;17.80;48.60;;;;;;4977084;28;20231;-71
2023/03/12 08:35:48;;;;;;;22.55;5.18;;;17.80;48.60;;;;;;4976789;28;20608;-71
2023/03/12 08:38:16;;;;;;;25.92;5.30;;;17.80;48.70;;;;;;4976871;28;20219;-71
2023/03/12 08:40:43;;;;;;;23.30;5.25;;;17.80;48.80;;;;;;4976856;28;20191;-71
2023/03/12 08:43:10;;;;;;;26.95;5.10;;;17.80;48.80;;;;;;4976410;28;20281;-71
2023/03/12 08:45:39;;;;;;;23.00;4.82;;;17.80;48.80;;;;;;4975334;28;20265;-71
2023/03/12 08:48:07;;;;;;;20.88;4.32;;;17.80;48.80;;;;;;4976561;28;20661;-71
2023/03/12 08:50:34;;;;;;;22.75;4.85;;;17.80;48.80;;;;;;4976596;28;20191;-71
2023/03/12 08:53:01;;;;;;;20.33;5.10;;;17.80;48.80;;;;;;4976604;28;20277;-71
2023/03/12 08:55:28;;;;;;;25.67;5.30;;;17.80;48.80;;;;;;4976494;28;20199;-71
2023/03/12 08:57:56;;;;;;;18.90;4.63;;;17.80;48.90;;;;;;4974935;28;20619;-71
2023/03/12 09:00:23;;;;;;;20.48;4.45;;;17.80;48.80;;;;;;4976324;28;20564;-71
2023/03/12 09:02:53;;;;;;;15.88;4.70;;;17.70;48.70;;;;;;4975962;28;20218;-71
2023/03/12 09:05:20;;;;;;;20.02;5.10;;;17.80;48.80;;;;;;4976225;28;20715;-71
2023/03/12 09:07:48;;;;;;;19.85;5.18;;;17.80;48.90;;;;;;4975805;28;20780;-71
2023/03/12 09:10:16;;;;;;;20.90;5.40;;;17.80;48.90;;;;;;4976192;28;20195;-71
2023/03/12 09:12:44;;;;;;;20.67;5.13;;;17.70;48.80;;;;;;4975889;28;20239;-71
2023/03/12 09:15:12;;;;;;;18.48;4.13;;;17.70;48.80;;;;;;4976153;28;20689;-71
2023/03/12 09:17:39;;;;;;;20.67;4.80;;;17.70;48.80;;;;;;4976176;28;20222;-71
2023/03/12 09:20:12;;;;;;;23.17;4.90;;;17.70;48.80;;;;;;4976042;28;20191;-71
2023/03/12 09:22:40;;;;;;;16.60;4.32;;;17.80;49.00;;;;;;4975654;28;20648;-71
2023/03/12 09:25:10;;;;;;;18.75;4.05;;;17.70;48.90;;;;;;4975973;28;20223;-71
2023/03/12 09:27:37;;;;;;;11.38;3.58;;;17.70;48.90;;;;;;4975602;28;20266;-71
2023/03/12 09:30:06;;;;;;;17.60;4.50;;;17.70;48.90;;;;;;4975979;28;20199;-71
2023/03/12 09:32:34;;;;;;;23.25;4.82;;;17.70;48.90;;;;;;4972632;28;20219;-71
2023/03/12 09:35:01;;;;;;;22.42;4.72;;;17.70;49.00;;;;;;4975619;28;20653;-71
2023/03/12 09:37:31;;;;;;;19.42;4.38;;;17.70;49.00;;;;;;4975424;28;20764;-71
2023/03/12 09:39:58;;;;;;;17.85;4.63;;;17.70;48.90;;;;;;4975435;28;20274;-71
2023/03/12 09:42:30;;;;;;;16.77;4.05;;;17.70;49.00;;;;;;4975494;28;20567;-71
2023/03/12 09:45:02;;;;;;;16.20;3.67;;;17.70;49.00;;;;;;4975322;28;20257;-71
2023/03/12 09:47:31;;;;;;;20.77;4.78;;;17.70;49.00;;;;;;4975527;28;20273;-71
2023/03/12 09:50:04;;;;;;;19.25;4.50;;;17.70;49.00;;;;;;4975527;28;20198;-71
2023/03/12 09:52:39;;;;;;;19.25;4.75;;;17.70;49.00;;;;;;4975301;28;20767;-71
2023/03/12 09:55:13;;;;;;;19.35;4.40;;;17.70;49.00;;;;;;4975460;28;20194;-71
2023/03/12 09:57:41;;;;;;;17.23;4.47;;;17.70;49.00;;;;;;4975190;28;20280;-71
2023/03/12 10:00:13;;;;;;;16.00;4.28;;;17.70;49.00;;;;;;4975309;28;20199;-71
2023/03/12 10:02:55;;;;;;;17.42;4.43;;;17.70;49.00;;;;;;4975474;28;20277;-71
2023/03/12 10:05:32;;;;;;;19.70;4.22;;;17.70;49.00;;;;;;4975172;28;20273;-71
2023/03/12 10:08:08;;;;;;;16.88;4.07;;;17.70;49.00;;;;;;4975411;28;20222;-71
2023/03/12 10:10:47;;;;;;;18.25;4.53;;;17.70;49.00;;;;;;4974859;28;20191;-71
2023/03/12 10:13:24;;;;;;;19.95;4.15;;;17.70;49.00;;;;;;4973983;28;20253;-71
2023/03/12 10:16:03;;;;;;;18.10;3.97;;;17.70;49.00;;;;;;4975043;28;20261;-71
2023/03/12 10:18:40;;;;;;;16.27;4.15;;;17.70;49.00;;;;;;4974898;28;20704;-71
2023/03/12 10:21:17;;;;;;;17.95;4.03;;;17.70;49.00;;;;;;4975143;28;20203;-71
2023/03/12 10:24:06;;;;;;;17.67;4.07;;;17.70;49.00;;;;;;4974953;28;20195;-71
2023/03/12 10:26:38;;;;;;;19.67;4.30;;;17.70;49.00;;;;;;4974709;28;20305;-71
2023/03/12 10:29:13;;;;;;;15.43;3.78;;;17.70;49.00;;;;;;4974804;28;20222;-71
2023/03/12 10:31:51;;;;;;;14.82;3.80;;;17.70;49.00;;;;;;4974371;28;20280;-71
2023/03/12 10:34:25;;;;;;;17.27;3.90;;;17.70;49.00;;;;;;4975144;28;20266;-71
2023/03/12 10:36:54;;;;;;;18.58;3.78;;;17.70;49.00;;;;;;4974737;28;20226;-71
2023/03/12 10:39:22;;;;;;;15.70;4.00;;;17.70;49.00;;;;;;4974228;28;20202;-71
2023/03/12 10:41:51;;;;;;;14.60;3.67;;;17.70;49.00;;;;;;4974598;28;20759;-71
2023/03/12 10:44:22;;;;;;;20.00;4.55;;;17.70;49.10;;;;;;4957542;28;20187;-71
2023/03/12 10:47:00;;;;;;;18.02;4.20;;;17.70;49.00;;;;;;4974257;28;20234;-71
2023/03/12 10:49:31;;;;;;;20.67;4.47;;;17.70;49.00;;;;;;4973283;28;20194;-71
2023/03/12 10:52:03;;;;;;;18.27;4.15;;;17.70;49.00;;;;;;4973125;28;20254;-71
2023/03/12 10:54:36;;;;;;;21.13;4.15;;;17.70;49.10;;;;;;4974378;28;20195;-71
2023/03/12 10:57:03;;;;;;;16.08;4.30;;;17.70;49.00;;;;;;4974390;28;20222;-71
2023/03/12 10:59:33;;;;;;;17.95;3.83;;;17.70;49.10;;;;;;4972770;28;20632;-71
2023/03/12 11:02:01;;;;;;;13.18;3.90;;;17.70;49.10;;;;;;4974201;28;20223;-71
2023/03/12 11:04:30;;;;;;;17.17;4.45;;;17.70;49.10;;;;;;4973946;28;20557;-71
2023/03/12 11:07:21;;;;;;;14.73;4.00;;;17.70;49.00;;;;;;4974185;28;20230;-71
2023/03/12 11:10:15;;;;;;;17.17;3.55;;;17.70;49.20;;;;;;4974073;28;20242;-71
2023/03/12 11:12:54;;;;;;;16.75;4.28;;;17.70;49.20;;;;;;4973784;28;20775;-71
2023/03/12 11:15:24;;;;;;;12.45;3.58;;;17.60;49.00;;;;;;4973988;28;20684;-71
2023/03/12 11:17:51;;;;;;;17.40;4.15;;;17.70;49.20;;;;;;4973802;28;20631;-71
2023/03/12 11:20:27;;;;;;;14.70;4.32;;;17.70;49.10;;;;;;4973628;28;20245;-71
2023/03/12 11:22:54;;;;;;;13.05;3.67;;;17.70;49.10;;;;;;4974112;28;20218;-71
2023/03/12 11:25:26;;;;;;;15.38;3.60;;;17.70;49.20;;;;;;4973599;28;20643;-71
2023/03/12 11:27:55;;;;;;;15.00;3.75;;;17.70;49.20;;;;;;4973960;28;20501;-71
2023/03/12 11:30:26;;;;;;;16.35;3.80;;;17.70;49.20;;;;;;4973776;28;20194;-71
2023/03/12 11:32:54;;;;;;;14.80;3.85;;;17.70;49.30;;;;;;4972361;28;20305;-71
2023/03/12 11:35:30;;;;;;;14.88;3.83;;;17.70;49.40;;;;;;4973460;28;20214;-71
2023/03/12 11:38:03;;;;;;;20.00;4.30;;;17.70;49.30;;;;;;4973741;28;20289;-71
2023/03/12 11:43:37;;;;;;;14.52;3.85;;;17.70;49.40;;;;;;5130849;27;21203;-73
2023/03/12 11:46:22;;;;;;;9.70;3.13;;;17.60;49.30;;;;;;5130375;27;20233;-72
2023/03/12 11:49:10;;;;;;;17.45;4.05;;;17.60;49.30;;;;;;5130475;27;20188;-72
2023/03/12 11:51:46;;;;;;;15.38;3.90;;;17.60;49.40;;;;;;5130354;27;20193;-72
2023/03/12 11:54:45;;;;;;;16.85;4.00;;;17.70;49.40;;;;;;5130231;27;20668;-72
2023/03/12 11:57:19;;;;;;;12.77;3.17;;;17.60;49.40;;;;;;5130098;27;20767;-72
2023/03/12 12:00:12;;;;;;;18.55;4.07;;;17.60;49.40;;;;;;5130212;27;20646;-72
2023/03/12 12:03:09;;;;;;;16.20;3.53;;;17.60;49.30;;;;;;5130324;27;20234;-72
2023/03/12 12:05:50;;;;;;;18.98;4.47;;;17.60;49.40;;;;;;5098574;27;20196;-72
2023/03/12 12:08:32;;;;;;;16.30;3.88;;;17.60;49.30;;;;;;5130174;27;20694;-72
2023/03/12 12:11:10;;;;;;;16.42;4.18;;;17.60;49.40;;;;;;5130013;27;20185;-72
2023/03/12 12:13:48;;;;;;;15.02;3.60;;;17.60;49.30;;;;;;5130194;27;20209;-72
2023/03/12 12:16:30;;;;;;;17.23;4.53;;;17.70;49.40;;;;;;5129830;27;20238;-73
2023/03/12 12:19:07;;;;;;;18.00;3.80;;;17.70;49.40;;;;;;5129892;27;20181;-72
2023/03/12 12:21:49;;;;;;;11.05;3.83;;;17.60;49.30;;;;;;5129967;27;20584;-72
2023/03/12 12:24:31;;;;;;;12.85;3.55;;;17.60;49.30;;;;;;5129732;28;20185;-73
2023/03/12 12:27:04;;;;;;;15.60;3.90;;;17.60;49.30;;;;;;5129677;27;20265;-73
2023/03/12 12:29:50;;;;;;;20.60;4.00;;;17.70;49.40;;;;;;5129596;27;20195;-73
2023/03/12 12:32:24;;;;;;;13.80;3.38;;;17.60;49.30;;;;;;5129907;27;20269;-72
2023/03/12 12:35:08;;;;;;;14.82;3.25;;;17.60;49.30;;;;;;5129540;27;20602;-73
2023/03/12 12:37:45;;;;;;;12.70;3.33;;;17.60;49.30;;;;;;5129870;27;20224;-72
2023/03/12 12:40:22;;;;;;;14.90;3.85;;;17.60;49.30;;;;;;5129717;27;20181;-73
2023/03/12 12:43:04;;;;;;;19.05;3.75;;;17.60;49.30;;;;;;5129141;27;20232;-73
2023/03/12 12:45:31;;;;;;;14.90;3.85;;;17.60;49.40;;;;;;5129592;27;20673;-72
2023/03/12 12:48:06;;;;;;;13.10;3.67;;;17.60;49.30;;;;;;5128003;28;20244;-73
2023/03/12 12:50:37;;;;;;;15.45;3.67;;;17.70;49.40;;;;;;5128024;28;20188;-72
2023/03/12 12:53:14;;;;;;;13.25;3.65;;;17.60;49.40;;;;;;5125188;27;20221;-72